createdAt,value
2023-01-24T00:01:49.358Z,-0.78
2023-01-24T00:06:52.542Z,-0.78
2023-01-24T00:11:56.109Z,-0.76
2023-01-24T00:16:59.393Z,-0.78
2023-01-24T00:22:02.832Z,-0.77
2023-01-24T00:27:06.002Z,-0.76
2023-01-24T00:32:09.419Z,-0.68
2023-01-24T00:37:12.604Z,-0.74
2023-01-24T00:42:15.800Z,-0.69
2023-01-24T00:47:18.962Z,-0.74
2023-01-24T00:52:22.399Z,-0.73
2023-01-24T00:57:26.115Z,-0.72
2023-01-24T01:02:29.418Z,-0.74
2023-01-24T01:07:32.593Z,-0.75
2023-01-24T01:12:35.808Z,-0.70
2023-01-24T01:17:39.263Z,-0.82
2023-01-24T01:22:42.476Z,-0.73
2023-01-24T01:27:45.731Z,-0.84
2023-01-24T01:32:49.311Z,-0.82
2023-01-24T01:37:53.032Z,-0.82
2023-01-24T01:42:56.185Z,-0.76
2023-01-24T01:47:59.366Z,-0.76
2023-01-24T01:53:02.528Z,-0.76
2023-01-24T01:58:05.958Z,-0.71
2023-01-24T02:03:26.831Z,-0.66
2023-01-24T02:08:29.979Z,-0.60
2023-01-24T02:13:33.238Z,-0.65
2023-01-24T02:18:36.590Z,-0.72
2023-01-24T02:23:39.814Z,-0.73
2023-01-24T02:28:43.931Z,-0.74
2023-01-24T02:33:47.087Z,-0.74
2023-01-24T02:38:50.300Z,-0.74
2023-01-24T02:43:53.446Z,-0.74
2023-01-24T02:48:56.758Z,-0.79
2023-01-24T02:54:00.317Z,-0.82
2023-01-24T02:59:04.651Z,-0.76
2023-01-24T03:04:07.792Z,-0.78
2023-01-24T03:09:20.233Z,-0.78
2023-01-24T03:14:41.435Z,-0.75
2023-01-24T03:20:02.232Z,-0.70
2023-01-24T03:25:23.269Z,-0.71
2023-01-24T03:30:44.180Z,-0.63
2023-01-24T03:35:54.583Z,-0.65
2023-01-24T03:40:57.959Z,-0.63
2023-01-24T03:46:01.219Z,-0.67
2023-01-24T03:51:21.891Z,-0.68
2023-01-24T03:56:25.129Z,-0.69
2023-01-24T04:01:28.415Z,-0.67
2023-01-24T04:06:32.078Z,-0.71
2023-01-24T04:11:35.563Z,-0.65
2023-01-24T04:16:38.820Z,-0.71
2023-01-24T04:21:42.152Z,-0.63
2023-01-24T04:26:45.352Z,-0.73
2023-01-24T04:31:49.278Z,-0.77
2023-01-24T04:36:52.784Z,-0.66
2023-01-24T04:41:56.221Z,-0.65
2023-01-24T04:46:59.671Z,-0.68
2023-01-24T04:52:05.609Z,-0.63
2023-01-24T04:57:09.240Z,-0.59
2023-01-24T05:02:12.580Z,-0.61
2023-01-24T05:07:15.957Z,-0.57
2023-01-24T05:12:19.535Z,-0.54
2023-01-24T05:17:22.653Z,-0.56
2023-01-24T05:22:25.798Z,-0.49
2023-01-24T05:27:29.116Z,-0.48
2023-01-24T05:32:32.595Z,-0.48
2023-01-24T05:37:35.758Z,-0.47
2023-01-24T05:42:39.140Z,-0.47
2023-01-24T05:47:42.289Z,-0.43
2023-01-24T05:52:45.499Z,-0.48
2023-01-24T05:57:48.784Z,-0.48
2023-01-24T06:02:52.493Z,-0.51
2023-01-24T06:07:56.377Z,-0.42
2023-01-24T06:12:59.642Z,-0.38
2023-01-24T06:18:05.145Z,-0.40
2023-01-24T06:23:08.515Z,-0.34
2023-01-24T06:28:12.447Z,-0.36
2023-01-24T06:33:16.365Z,-0.37
2023-01-24T06:38:19.681Z,-0.38
2023-01-24T06:43:22.903Z,-0.39
2023-01-24T06:48:26.088Z,-0.42
2023-01-24T06:53:29.520Z,-0.51
2023-01-24T06:58:32.712Z,-0.48
2023-01-24T07:03:36.073Z,-0.47
2023-01-24T07:08:39.352Z,-0.44
2023-01-24T07:13:43.972Z,-0.45
2023-01-24T07:18:49.059Z,-0.40
2023-01-24T07:23:53.464Z,-0.29
2023-01-24T07:28:57.301Z,-0.37
2023-01-24T07:34:02.419Z,-0.38
2023-01-24T07:39:05.513Z,-0.31
2023-01-24T07:44:09.290Z,-0.25
2023-01-24T07:49:12.441Z,-0.21
2023-01-24T07:54:16.419Z,-0.19
2023-01-24T07:59:30.296Z,-0.12
2023-01-24T08:04:40.579Z,-0.12
2023-01-24T08:09:43.876Z,-0.09
2023-01-24T08:14:47.418Z,-0.01
2023-01-24T08:19:58.397Z,-0.03
2023-01-24T08:25:01.702Z,0.03
2023-01-24T08:30:05.002Z,0.01
2023-01-24T08:35:08.460Z,0.03
2023-01-24T08:40:11.902Z,0.10
2023-01-24T08:45:15.170Z,0.05
2023-01-24T08:50:20.847Z,0.16
2023-01-24T08:55:24.461Z,0.13
2023-01-24T09:00:28.546Z,0.26
2023-01-24T09:05:31.863Z,0.35
2023-01-24T09:10:35.447Z,0.44
2023-01-24T09:15:39.257Z,0.45
2023-01-24T09:20:42.508Z,0.50
2023-01-24T09:25:46.409Z,0.39
2023-01-24T09:30:50.890Z,0.40
2023-01-24T09:35:54.279Z,0.32
2023-01-24T09:40:58.063Z,0.45
2023-01-24T09:46:03.307Z,0.35
2023-01-24T09:51:06.464Z,0.39
2023-01-24T09:56:15.234Z,0.37
2023-01-24T10:01:19.566Z,0.33
2023-01-24T10:06:23.116Z,0.41
2023-01-24T10:11:26.828Z,0.37
2023-01-24T10:16:30.046Z,0.47
2023-01-24T10:21:33.482Z,0.54
2023-01-24T10:26:39.853Z,0.41
2023-01-24T10:31:43.108Z,0.40
2023-01-24T10:36:46.498Z,0.50
2023-01-24T10:41:50.022Z,0.48
2023-01-24T10:46:54.986Z,0.43
2023-01-24T10:51:59.093Z,0.59
2023-01-24T10:57:02.411Z,0.49
2023-01-24T11:02:06.563Z,0.47
2023-01-24T11:07:10.079Z,0.59
2023-01-24T11:12:13.355Z,0.63
2023-01-24T11:17:17.031Z,0.52
2023-01-24T11:22:20.810Z,0.40
2023-01-24T11:27:24.823Z,0.40
2023-01-24T11:32:28.028Z,0.41
2023-01-24T11:37:32.384Z,0.58
2023-01-24T11:42:35.641Z,0.77
2023-01-24T11:47:38.946Z,0.59
2023-01-24T11:52:42.211Z,0.62
2023-01-24T11:57:45.723Z,0.55
2023-01-24T12:02:49.156Z,0.58
2023-01-24T12:07:52.346Z,0.57
2023-01-24T12:12:56.480Z,0.61
2023-01-24T12:17:59.784Z,0.68
2023-01-24T12:23:03.104Z,0.70
2023-01-24T12:28:09.453Z,0.69
2023-01-24T12:33:12.860Z,0.67
2023-01-24T12:38:15.980Z,0.73
2023-01-24T12:43:19.906Z,0.78
2023-01-24T12:48:23.060Z,0.94
2023-01-24T12:53:26.342Z,0.86
2023-01-24T12:58:29.467Z,1.02
2023-01-24T13:03:32.636Z,0.92
2023-01-24T13:08:38.910Z,0.81
2023-01-24T13:13:42.439Z,0.93
2023-01-24T13:18:45.521Z,0.90
2023-01-24T13:23:49.238Z,0.91
2023-01-24T13:28:52.651Z,0.80
2023-01-24T13:33:56.371Z,0.85
2023-01-24T13:39:01.018Z,0.78
2023-01-24T13:44:05.560Z,0.68
2023-01-24T13:49:08.849Z,0.67
2023-01-24T13:54:13.087Z,0.77
2023-01-24T13:59:16.936Z,0.71
2023-01-24T14:04:20.340Z,0.73
2023-01-24T14:09:24.061Z,0.80
2023-01-24T14:14:27.248Z,0.70
2023-01-24T14:19:31.156Z,0.60
2023-01-24T14:24:34.909Z,0.65
2023-01-24T14:29:38.152Z,0.54
2023-01-24T14:34:41.406Z,0.58
2023-01-24T14:39:44.634Z,0.68
2023-01-24T14:44:47.941Z,0.59
2023-01-24T14:49:51.421Z,0.58
2023-01-24T14:54:54.814Z,0.62
2023-01-24T14:59:58.041Z,0.77
2023-01-24T15:05:01.327Z,0.69
2023-01-24T15:10:04.983Z,0.68
2023-01-24T15:15:08.311Z,0.65
2023-01-24T15:20:13.114Z,0.63
2023-01-24T15:25:16.351Z,0.47
2023-01-24T15:30:21.608Z,0.42
2023-01-24T15:35:25.016Z,0.45
2023-01-24T15:40:28.231Z,0.44
2023-01-24T15:45:31.587Z,0.48
2023-01-24T15:50:52.535Z,0.47
2023-01-24T15:55:55.922Z,0.54
2023-01-24T16:00:59.096Z,0.53
2023-01-24T16:06:02.559Z,0.54
2023-01-24T16:11:05.807Z,0.55
2023-01-24T16:16:09.147Z,0.59
2023-01-24T16:21:12.804Z,0.58
2023-01-24T16:26:16.263Z,0.54
2023-01-24T16:31:19.826Z,0.58
2023-01-24T16:36:23.435Z,0.61
2023-01-24T16:41:27.082Z,0.59
2023-01-24T16:46:30.660Z,0.67
2023-01-24T16:51:33.898Z,0.69
2023-01-24T16:56:37.464Z,0.61
2023-01-24T17:01:41.093Z,0.58
2023-01-24T17:06:44.463Z,0.57
2023-01-24T17:11:47.909Z,0.57
2023-01-24T17:16:51.290Z,0.60
2023-01-24T17:21:54.633Z,0.56
2023-01-24T17:26:58.117Z,0.62
2023-01-24T17:32:01.563Z,0.66
2023-01-24T17:37:04.897Z,0.65
2023-01-24T17:42:08.076Z,0.65
2023-01-24T17:47:11.871Z,0.66
2023-01-24T17:52:23.741Z,0.62
2023-01-24T17:57:27.386Z,0.65
2023-01-24T18:02:30.554Z,0.62
2023-01-24T18:07:34.004Z,0.62
2023-01-24T18:12:37.494Z,0.62
2023-01-24T18:17:40.760Z,0.62
2023-01-24T18:22:44.332Z,0.66
2023-01-24T18:27:47.502Z,0.61
2023-01-24T18:32:51.040Z,0.55
2023-01-24T18:37:56.193Z,0.56
2023-01-24T18:42:59.706Z,0.53
2023-01-24T18:48:03.566Z,0.50
2023-01-24T18:53:07.173Z,0.54
2023-01-24T18:58:11.559Z,0.53
2023-01-24T19:03:14.972Z,0.54
2023-01-24T19:08:18.440Z,0.57
2023-01-24T19:13:22.037Z,0.62
2023-01-24T19:18:25.857Z,0.54
2023-01-24T19:23:29.001Z,0.49
2023-01-24T19:28:39.283Z,0.43
2023-01-24T19:33:43.160Z,0.51
2023-01-24T19:38:47.060Z,0.48
2023-01-24T19:44:17.397Z,0.52
2023-01-24T19:49:13.883Z,0.50
2023-01-24T19:54:18.105Z,0.45
2023-01-24T19:59:21.384Z,0.41
2023-01-24T20:04:25.628Z,0.42
2023-01-24T20:09:29.074Z,0.33
2023-01-24T20:14:32.660Z,0.32
2023-01-24T20:19:37.029Z,0.31
2023-01-24T20:24:40.530Z,0.28
2023-01-24T20:29:44.158Z,0.22
2023-01-24T20:34:48.023Z,0.27
2023-01-24T20:39:52.313Z,0.23
2023-01-24T20:44:55.944Z,0.17
2023-01-24T20:50:00.685Z,0.22
2023-01-24T20:55:04.156Z,0.14
2023-01-24T21:00:07.854Z,0.15
2023-01-24T21:05:12.386Z,0.22
2023-01-24T21:10:17.396Z,0.13
2023-01-24T21:15:22.437Z,0.17
2023-01-24T21:20:26.872Z,0.15
2023-01-24T21:25:30.542Z,0.13
2023-01-24T21:30:34.372Z,0.17
2023-01-24T21:35:40.240Z,0.17
2023-01-24T21:41:01.184Z,0.10
2023-01-24T21:46:04.674Z,0.13
2023-01-24T21:51:08.848Z,0.09
2023-01-24T21:56:29.953Z,0.12
2023-01-24T22:01:35.662Z,0.08
2023-01-24T22:06:39.033Z,0.01
2023-01-24T22:11:42.194Z,0.04
2023-01-24T22:16:45.547Z,0.11
2023-01-24T22:21:49.327Z,0.04
2023-01-24T22:26:52.667Z,0.05
2023-01-24T22:31:58.160Z,0.00
2023-01-24T22:37:01.430Z,0.01
2023-01-24T22:42:04.863Z,0.04
2023-01-24T22:47:08.229Z,-0.02
2023-01-24T22:52:12.363Z,-0.05
2023-01-24T22:57:20.923Z,-0.08
2023-01-24T23:02:24.143Z,-0.11
2023-01-24T23:07:27.342Z,-0.15
2023-01-24T23:12:48.045Z,-0.15
2023-01-24T23:17:51.463Z,-0.10
2023-01-24T23:22:57.148Z,-0.19
2023-01-24T23:28:00.684Z,-0.09
2023-01-24T23:33:05.088Z,-0.20
2023-01-24T23:38:10.604Z,-0.25
2023-01-24T23:43:13.736Z,-0.21
2023-01-24T23:48:16.845Z,-0.27
2023-01-24T23:53:20.922Z,-0.34
2023-01-24T23:58:24.061Z,-0.32
